createdAt,value
2022-08-02T00:01:42.280Z,100438.59
2022-08-02T00:04:43.782Z,100427.56
2022-08-02T00:07:45.296Z,100424.16
2022-08-02T00:10:46.765Z,100430.78
2022-08-02T00:13:48.458Z,100434.78
2022-08-02T00:16:50.168Z,100432.53
2022-08-02T00:19:51.583Z,100423.13
2022-08-02T00:22:53.057Z,100419.25
2022-08-02T00:25:55.957Z,100420.53
2022-08-02T00:28:57.877Z,100409.91
2022-08-02T00:31:59.625Z,100406.91
2022-08-02T00:35:01.064Z,100400.91
2022-08-02T00:38:03.973Z,100401.72
2022-08-02T00:41:11.812Z,100410.22
2022-08-02T00:44:13.270Z,100415.75
2022-08-02T00:47:19.746Z,100421.31
2022-08-02T00:50:21.436Z,100432.59
2022-08-02T00:53:22.974Z,100432.34
2022-08-02T00:56:24.688Z,100436.84
2022-08-02T00:59:26.238Z,100441.88
2022-08-02T01:02:27.739Z,100439.03
2022-08-02T01:05:29.286Z,100442.06
2022-08-02T01:08:31.942Z,100446.72
2022-08-02T01:11:34.981Z,100451.25
2022-08-02T01:14:37.496Z,100461.84
2022-08-02T01:17:49.097Z,100457.03
2022-08-02T01:21:12.708Z,100457.91
2022-08-02T01:24:28.782Z,100464.16
2022-08-02T01:28:01.247Z,100464.34
2022-08-02T01:31:21.138Z,100461.63
2022-08-02T01:34:42.675Z,100458.91
2022-08-02T01:37:57.166Z,100458.53
2022-08-02T01:41:02.199Z,100458.66
2022-08-02T01:44:05.291Z,100462.09
2022-08-02T01:47:15.290Z,100456.50
2022-08-02T01:50:21.713Z,100453.25
2022-08-02T01:53:27.033Z,100455.41
2022-08-02T01:56:28.616Z,100443.09
2022-08-02T01:59:32.121Z,100447.56
2022-08-02T02:02:37.136Z,100449.31
2022-08-02T02:05:41.572Z,100451.50
2022-08-02T02:08:44.213Z,100449.34
2022-08-02T02:12:13.196Z,100445.81
2022-08-02T02:15:12.356Z,100447.50
2022-08-02T02:18:27.787Z,100454.66
2022-08-02T02:21:29.693Z,100448.81
2022-08-02T02:24:33.760Z,100445.94
2022-08-02T02:27:37.367Z,100453.28
2022-08-02T02:30:42.857Z,100443.22
2022-08-02T02:33:52.788Z,100443.81
2022-08-02T02:36:56.593Z,100436.50
2022-08-02T02:39:58.340Z,100431.53
2022-08-02T02:43:01.583Z,100433.84
2022-08-02T02:46:06.167Z,100434.88
2022-08-02T02:49:11.149Z,100430.06
2022-08-02T02:52:15.388Z,100439.38
2022-08-02T02:55:18.022Z,100441.66
2022-08-02T02:58:19.813Z,100445.63
2022-08-02T03:01:55.160Z,100452.31
2022-08-02T03:04:56.130Z,100450.97
2022-08-02T03:07:59.130Z,100455.00
2022-08-02T03:11:00.923Z,100456.31
2022-08-02T03:14:04.208Z,100456.66
2022-08-02T03:17:05.633Z,100457.81
2022-08-02T03:20:10.608Z,100456.72
2022-08-02T03:23:12.049Z,100464.84
2022-08-02T03:26:13.827Z,100466.97
2022-08-02T03:29:15.339Z,100459.44
2022-08-02T03:32:16.801Z,100465.69
2022-08-02T03:35:23.902Z,100472.13
2022-08-02T03:38:29.219Z,100474.44
2022-08-02T03:41:31.935Z,100466.97
2022-08-02T03:44:33.884Z,100458.69
2022-08-02T03:47:38.214Z,100458.09
2022-08-02T03:50:41.192Z,100462.13
2022-08-02T03:53:43.166Z,100448.56
2022-08-02T03:56:45.765Z,100465.28
2022-08-02T03:59:47.440Z,100460.72
2022-08-02T04:02:49.721Z,100459.31
2022-08-02T04:06:03.186Z,100466.22
2022-08-02T04:09:06.185Z,100464.19
2022-08-02T04:12:08.134Z,100475.53
2022-08-02T04:15:12.432Z,100473.25
2022-08-02T04:18:14.728Z,100466.94
2022-08-02T04:21:19.468Z,100459.53
2022-08-02T04:24:26.635Z,100472.19
2022-08-02T04:27:50.464Z,100472.78
2022-08-02T04:30:52.777Z,100481.75
2022-08-02T04:33:54.948Z,100475.69
2022-08-02T04:36:57.022Z,100481.75
2022-08-02T04:39:58.702Z,100465.88
2022-08-02T04:43:00.166Z,100479.97
2022-08-02T04:46:02.882Z,100468.84
2022-08-02T04:49:05.123Z,100481.03
2022-08-02T04:52:06.774Z,100488.00
2022-08-02T04:55:08.636Z,100482.16
2022-08-02T04:58:38.362Z,100495.28
2022-08-02T05:01:32.368Z,100487.91
2022-08-02T05:04:33.880Z,100489.72
2022-08-02T05:07:36.911Z,100491.06
2022-08-02T05:10:38.539Z,100495.50
2022-08-02T05:13:58.487Z,100500.06
2022-08-02T05:17:01.296Z,100507.50
2022-08-02T05:20:03.672Z,100513.75
2022-08-02T05:23:05.051Z,100506.06
2022-08-02T05:26:06.529Z,100513.78
2022-08-02T05:29:08.021Z,100513.31
2022-08-02T05:32:09.801Z,100511.28
2022-08-02T05:35:11.906Z,100506.84
2022-08-02T05:38:13.472Z,100507.75
2022-08-02T05:41:14.975Z,100499.31
2022-08-02T05:44:16.536Z,100500.97
2022-08-02T05:47:18.054Z,100502.81
2022-08-02T05:50:19.890Z,100514.22
2022-08-02T05:53:43.132Z,100513.03
2022-08-02T05:57:04.099Z,100511.00
2022-08-02T06:00:13.672Z,100516.91
2022-08-02T06:03:39.042Z,100517.44
2022-08-02T06:06:44.013Z,100517.88
2022-08-02T06:09:47.762Z,100524.28
2022-08-02T06:12:50.868Z,100525.16
2022-08-02T06:15:53.906Z,100528.97
2022-08-02T06:18:57.201Z,100523.84
2022-08-02T06:22:31.434Z,100525.94
2022-08-02T06:25:48.513Z,100519.13
2022-08-02T06:28:54.890Z,100516.19
2022-08-02T06:31:57.432Z,100518.19
2022-08-02T06:34:58.908Z,100519.81
2022-08-02T06:38:02.147Z,100521.22
2022-08-02T06:41:09.130Z,100527.66
2022-08-02T06:44:45.559Z,100527.22
2022-08-02T06:47:35.101Z,100529.63
2022-08-02T06:50:41.960Z,100537.03
2022-08-02T06:53:43.735Z,100534.66
2022-08-02T06:56:45.977Z,100544.56
2022-08-02T06:59:47.506Z,100548.97
2022-08-02T07:02:49.759Z,100542.97
2022-08-02T07:05:52.186Z,100540.50
2022-08-02T07:09:18.202Z,100539.19
2022-08-02T07:12:15.086Z,100548.59
2022-08-02T07:15:16.983Z,100544.66
2022-08-02T07:18:18.849Z,100540.66
2022-08-02T07:21:56.568Z,100545.81
2022-08-02T07:24:41.994Z,100549.44
2022-08-02T07:27:43.594Z,100539.56
2022-08-02T07:30:45.145Z,100537.16
2022-08-02T07:33:47.179Z,100534.06
2022-08-02T07:36:49.023Z,100536.63
2022-08-02T07:39:50.957Z,100530.47
2022-08-02T07:42:57.909Z,100533.47
2022-08-02T07:46:01.272Z,100521.72
2022-08-02T07:49:02.909Z,100536.16
2022-08-02T07:52:04.765Z,100527.00
2022-08-02T07:55:06.614Z,100520.72
2022-08-02T07:58:13.055Z,100521.00
2022-08-02T08:01:15.361Z,100515.19
2022-08-02T08:04:17.496Z,100515.34
2022-08-02T08:07:19.040Z,100517.81
2022-08-02T08:10:20.608Z,100511.88
2022-08-02T08:13:22.047Z,100517.09
2022-08-02T08:16:26.105Z,100515.00
2022-08-02T08:19:50.063Z,100514.78
2022-08-02T08:22:50.046Z,100513.69
2022-08-02T08:25:51.721Z,100515.28
2022-08-02T08:28:53.155Z,100509.72
2022-08-02T08:31:54.634Z,100517.63
2022-08-02T08:34:58.646Z,100507.81
2022-08-02T08:38:04.149Z,100510.69
2022-08-02T08:41:08.570Z,100513.47
2022-08-02T08:44:10.090Z,100510.34
2022-08-02T08:47:11.845Z,100517.00
2022-08-02T08:50:25.382Z,100510.88
2022-08-02T08:53:36.852Z,100516.38
2022-08-02T08:56:40.531Z,100516.09
2022-08-02T08:59:42.000Z,100515.78
2022-08-02T09:02:43.990Z,100518.44
2022-08-02T09:05:47.020Z,100523.28
2022-08-02T09:08:48.917Z,100525.47
2022-08-02T09:11:50.758Z,100527.28
2022-08-02T09:14:52.675Z,100515.88
2022-08-02T09:17:54.310Z,100510.34
2022-08-02T09:20:58.812Z,100516.25
2022-08-02T09:24:00.879Z,100515.31
2022-08-02T09:27:13.879Z,100510.75
2022-08-02T09:30:16.806Z,100508.88
2022-08-02T09:33:28.617Z,100503.63
2022-08-02T09:36:47.646Z,100504.09
2022-08-02T09:39:49.219Z,100504.78
2022-08-02T09:42:59.399Z,100502.13
2022-08-02T09:46:13.277Z,100508.34
2022-08-02T09:49:16.859Z,100508.00
2022-08-02T09:52:37.335Z,100498.13
2022-08-02T09:55:55.998Z,100502.22
2022-08-02T09:58:57.917Z,100484.91
2022-08-02T10:02:17.420Z,100491.34
2022-08-02T10:05:21.301Z,100502.41
2022-08-02T10:08:25.848Z,100499.75
2022-08-02T10:11:28.744Z,100497.63
2022-08-02T10:14:30.476Z,100485.03
2022-08-02T10:17:32.443Z,100481.97
2022-08-02T10:20:43.408Z,100493.03
2022-08-02T10:23:47.586Z,100485.41
2022-08-02T10:26:49.881Z,100485.09
2022-08-02T10:29:56.026Z,100473.97
2022-08-02T10:33:00.994Z,100471.16
2022-08-02T10:36:07.482Z,100469.84
2022-08-02T10:39:10.167Z,100477.53
2022-08-02T10:42:13.695Z,100470.72
2022-08-02T10:45:18.444Z,100461.66
2022-08-02T10:48:19.886Z,100462.75
2022-08-02T10:51:24.522Z,100456.94
2022-08-02T10:54:44.080Z,100449.31
2022-08-02T10:57:47.063Z,100450.88
2022-08-02T11:00:51.632Z,100458.78
2022-08-02T11:03:59.682Z,100459.34
2022-08-02T11:07:14.319Z,100451.06
2022-08-02T11:10:33.982Z,100456.28
2022-08-02T11:14:07.024Z,100458.56
2022-08-02T11:17:13.507Z,100455.69
2022-08-02T11:20:16.868Z,100445.81
2022-08-02T11:23:45.407Z,100452.03
2022-08-02T11:26:47.366Z,100435.81
2022-08-02T11:29:49.595Z,100437.06
2022-08-02T11:32:56.043Z,100430.56
2022-08-02T11:36:02.592Z,100431.81
2022-08-02T11:39:12.452Z,100431.38
2022-08-02T11:42:17.475Z,100433.22
2022-08-02T11:45:29.426Z,100431.41
2022-08-02T11:48:39.641Z,100435.75
2022-08-02T11:52:04.983Z,100421.75
2022-08-02T11:55:08.210Z,100431.38
2022-08-02T11:58:11.583Z,100434.63
2022-08-02T12:01:13.077Z,100425.78
2022-08-02T12:04:22.736Z,100423.75
2022-08-02T12:07:35.283Z,100418.84
2022-08-02T12:10:47.687Z,100428.16
2022-08-02T12:13:56.489Z,100434.34
2022-08-02T12:17:17.478Z,100424.75
2022-08-02T12:20:20.042Z,100429.38
2022-08-02T12:23:21.573Z,100419.47
2022-08-02T12:26:23.931Z,100424.56
2022-08-02T12:29:56.420Z,100421.72
2022-08-02T12:33:13.150Z,100420.53
2022-08-02T12:36:18.577Z,100421.19
2022-08-02T12:39:20.034Z,100421.50
2022-08-02T12:42:21.651Z,100411.31
2022-08-02T12:45:25.049Z,100411.28
2022-08-02T12:48:40.359Z,100417.22
2022-08-02T12:51:51.864Z,100417.78
2022-08-02T12:54:58.416Z,100407.78
2022-08-02T12:58:05.383Z,100413.16
2022-08-02T13:01:06.848Z,100392.81
2022-08-02T13:04:13.762Z,100398.97
2022-08-02T13:07:18.352Z,100390.31
2022-08-02T13:10:21.662Z,100391.38
2022-08-02T13:13:23.117Z,100392.03
2022-08-02T13:16:31.139Z,100387.75
2022-08-02T13:19:33.128Z,100386.72
2022-08-02T13:22:35.072Z,100382.19
2022-08-02T13:25:36.490Z,100377.47
2022-08-02T13:28:41.948Z,100377.00
2022-08-02T13:31:43.607Z,100382.13
2022-08-02T13:34:45.351Z,100375.94
2022-08-02T13:37:48.095Z,100381.44
2022-08-02T13:41:08.227Z,100368.81
2022-08-02T13:44:10.919Z,100371.47
2022-08-02T13:47:12.670Z,100371.56
2022-08-02T13:50:14.170Z,100370.63
2022-08-02T13:53:15.751Z,100367.78
2022-08-02T13:56:17.249Z,100364.63
2022-08-02T13:59:57.798Z,100366.72
2022-08-02T14:02:40.695Z,100361.53
2022-08-02T14:05:48.033Z,100352.53
2022-08-02T14:08:50.155Z,100346.41
2022-08-02T14:11:52.041Z,100347.94
2022-08-02T14:14:53.468Z,100343.31
2022-08-02T14:17:54.910Z,100337.63
2022-08-02T14:20:56.379Z,100335.16
2022-08-02T14:23:58.055Z,100335.22
2022-08-02T14:26:59.462Z,100328.69
2022-08-02T14:30:01.233Z,100341.81
2022-08-02T14:33:03.975Z,100343.66
2022-08-02T14:36:06.171Z,100332.63
2022-08-02T14:39:07.695Z,100337.69
2022-08-02T14:42:09.646Z,100337.31
2022-08-02T14:45:11.134Z,100330.16
2022-08-02T14:48:12.682Z,100319.66
2022-08-02T14:51:14.398Z,100312.75
2022-08-02T14:54:15.858Z,100304.75
2022-08-02T14:57:19.696Z,100306.59
2022-08-02T15:00:21.174Z,100305.69
2022-08-02T15:03:22.635Z,100305.66
2022-08-02T15:06:24.241Z,100313.84
2022-08-02T15:09:26.783Z,100303.81
2022-08-02T15:12:28.202Z,100299.25
2022-08-02T15:15:29.701Z,100308.41
2022-08-02T15:18:31.495Z,100301.09
2022-08-02T15:21:41.917Z,100301.09
2022-08-02T15:24:53.925Z,100296.38
2022-08-02T15:27:55.393Z,100299.94
2022-08-02T15:30:57.633Z,100290.97
2022-08-02T15:33:59.075Z,100294.50
2022-08-02T15:37:00.662Z,100289.09
2022-08-02T15:40:02.329Z,100298.31
2022-08-02T15:43:03.871Z,100297.44
2022-08-02T15:46:06.563Z,100291.78
2022-08-02T15:49:08.267Z,100295.47
2022-08-02T15:52:10.203Z,100290.53
2022-08-02T15:55:12.091Z,100284.41
2022-08-02T15:58:17.139Z,100284.16
2022-08-02T16:01:19.691Z,100271.88
2022-08-02T16:04:21.334Z,100281.16
2022-08-02T16:07:22.751Z,100282.09
2022-08-02T16:10:25.151Z,100287.91
2022-08-02T16:13:53.678Z,100281.53
2022-08-02T16:16:57.541Z,100281.50
2022-08-02T16:19:59.264Z,100279.63
2022-08-02T16:23:00.671Z,100282.25
2022-08-02T16:26:06.035Z,100276.91
2022-08-02T16:29:07.880Z,100278.72
2022-08-02T16:32:12.318Z,100281.94
2022-08-02T16:35:14.071Z,100277.38
2022-08-02T16:38:16.105Z,100277.38
2022-08-02T16:41:17.630Z,100268.28
2022-08-02T16:44:29.006Z,100264.72
2022-08-02T16:47:42.649Z,100262.94
2022-08-02T16:50:46.396Z,100264.78
2022-08-02T16:53:59.812Z,100262.50
2022-08-02T16:57:03.246Z,100251.78
2022-08-02T17:00:05.674Z,100253.81
2022-08-02T17:03:13.320Z,100252.56
2022-08-02T17:06:16.104Z,100249.94
2022-08-02T17:10:01.820Z,100263.84
2022-08-02T17:12:40.155Z,100251.13
2022-08-02T17:16:17.321Z,100253.34
2022-08-02T17:19:03.895Z,100249.81
2022-08-02T17:22:05.375Z,100250.69
2022-08-02T17:28:31.436Z,100256.06
2022-08-02T17:31:37.345Z,100247.50
2022-08-02T17:34:56.444Z,100255.66
2022-08-02T17:38:01.276Z,100250.44
2022-08-02T17:41:04.091Z,100245.69
2022-08-02T17:44:06.661Z,100247.44
2022-08-02T17:47:10.200Z,100258.38
2022-08-02T17:50:13.354Z,100253.63
2022-08-02T17:53:14.874Z,100244.25
2022-08-02T17:56:16.664Z,100249.63
2022-08-02T17:59:30.654Z,100246.84
2022-08-02T18:02:32.396Z,100251.31
2022-08-02T18:05:40.084Z,100247.56
2022-08-02T18:08:51.214Z,100249.09
2022-08-02T18:11:55.069Z,100247.44
2022-08-02T18:14:56.499Z,100238.25
2022-08-02T18:17:57.979Z,100242.59
2022-08-02T18:21:08.166Z,100243.75
2022-08-02T18:24:19.188Z,100239.03
2022-08-02T18:27:25.510Z,100245.13
2022-08-02T18:30:28.020Z,100241.09
2022-08-02T18:33:57.244Z,100230.19
2022-08-02T18:36:51.586Z,100241.91
2022-08-02T18:39:53.036Z,100241.63
2022-08-02T18:42:54.939Z,100235.06
2022-08-02T18:46:05.599Z,100241.53
2022-08-02T18:49:16.690Z,100234.06
2022-08-02T18:52:31.399Z,100236.50
2022-08-02T18:55:59.722Z,100234.31
2022-08-02T18:58:55.827Z,100234.84
2022-08-02T19:01:57.669Z,100229.19
2022-08-02T19:05:00.437Z,100235.13
2022-08-02T19:08:01.923Z,100226.75
2022-08-02T19:11:04.585Z,100228.66
2022-08-02T19:14:05.987Z,100229.53
2022-08-02T19:17:16.118Z,100228.38
2022-08-02T19:20:30.029Z,100236.03
2022-08-02T19:23:31.470Z,100231.16
2022-08-02T19:26:32.849Z,100229.22
2022-08-02T19:29:43.003Z,100233.00
2022-08-02T19:33:00.241Z,100236.19
2022-08-02T19:36:03.983Z,100229.34
2022-08-02T19:39:06.082Z,100236.72
2022-08-02T19:42:07.950Z,100242.66
2022-08-02T19:45:13.095Z,100234.28
2022-08-02T19:48:14.865Z,100237.06
2022-08-02T19:51:55.090Z,100234.00
2022-08-02T19:54:55.721Z,100239.38
2022-08-02T19:57:58.175Z,100244.69
2022-08-02T20:00:59.645Z,100245.63
2022-08-02T20:04:03.914Z,100240.25
2022-08-02T20:07:05.410Z,100241.63
2022-08-02T20:10:10.927Z,100245.28
2022-08-02T20:13:13.019Z,100245.78
2022-08-02T20:16:27.490Z,100244.75
2022-08-02T20:19:29.895Z,100237.97
2022-08-02T20:22:33.465Z,100240.25
2022-08-02T20:25:34.902Z,100240.09
2022-08-02T20:28:36.727Z,100238.19
2022-08-02T20:31:38.522Z,100231.88
2022-08-02T20:34:40.080Z,100235.59
2022-08-02T20:38:00.971Z,100228.00
2022-08-02T20:41:03.901Z,100227.06
2022-08-02T20:44:05.475Z,100228.75
2022-08-02T20:47:17.753Z,100227.03
2022-08-02T20:50:49.160Z,100235.97
2022-08-02T20:53:54.767Z,100230.19
2022-08-02T20:56:56.631Z,100224.56
2022-08-02T21:00:03.616Z,100226.88
2022-08-02T21:03:06.390Z,100225.88
2022-08-02T21:06:09.805Z,100228.56
2022-08-02T21:09:11.476Z,100229.53
2022-08-02T21:12:14.426Z,100225.09
2022-08-02T21:15:15.901Z,100231.16
2022-08-02T21:21:38.858Z,100229.88
2022-08-02T21:24:40.342Z,100227.44
2022-08-02T21:27:53.108Z,100235.34
2022-08-02T21:30:56.769Z,100229.38
2022-08-02T21:33:59.380Z,100230.28
2022-08-02T21:37:09.892Z,100218.88
2022-08-02T21:40:13.023Z,100227.34
2022-08-02T21:43:14.524Z,100223.56
2022-08-02T21:46:16.912Z,100223.44
2022-08-02T21:49:20.120Z,100231.56
2022-08-02T21:52:25.953Z,100228.63
2022-08-02T21:58:48.999Z,100241.19
2022-08-02T22:01:53.119Z,100233.56
2022-08-02T22:04:55.230Z,100240.94
2022-08-02T22:07:58.188Z,100243.81
2022-08-02T22:11:03.151Z,100245.16
2022-08-02T22:14:04.951Z,100252.00
2022-08-02T22:20:41.323Z,100258.06
2022-08-02T22:23:50.441Z,100258.63
2022-08-02T22:26:52.657Z,100259.03
2022-08-02T22:29:54.112Z,100257.03
2022-08-02T22:33:15.201Z,100253.13
2022-08-02T22:36:17.242Z,100260.69
2022-08-02T22:39:19.744Z,100257.97
2022-08-02T22:42:21.432Z,100261.75
2022-08-02T22:45:23.052Z,100258.75
2022-08-02T22:48:24.880Z,100259.59
2022-08-02T22:51:27.635Z,100264.31
2022-08-02T22:54:30.889Z,100258.06
2022-08-02T22:57:33.496Z,100255.03
2022-08-02T22:58:51.223Z,100249.69
2022-08-02T22:59:02.438Z,100226.63
2022-08-02T22:59:03.803Z,100234.72
2022-08-02T23:00:54.952Z,100264.13
2022-08-02T23:03:56.381Z,100261.22
2022-08-02T23:06:58.885Z,100259.84
2022-08-02T23:10:00.686Z,100261.47
2022-08-02T23:13:02.128Z,100259.00
2022-08-02T23:16:22.301Z,100265.16
2022-08-02T23:19:42.351Z,100271.22
2022-08-02T23:22:43.795Z,100263.97
2022-08-02T23:25:46.280Z,100268.31
2022-08-02T23:28:47.867Z,100262.66
2022-08-02T23:31:49.603Z,100269.66
2022-08-02T23:34:52.069Z,100259.94
2022-08-02T23:38:00.488Z,100269.31
2022-08-02T23:41:04.569Z,100275.16
2022-08-02T23:44:15.079Z,100264.59
2022-08-02T23:47:17.049Z,100268.59
2022-08-02T23:50:18.646Z,100260.84
2022-08-02T23:53:20.085Z,100262.41
2022-08-02T23:56:21.510Z,100269.44
2022-08-02T23:59:23.077Z,100265.00
